createdAt,value
2023-04-06T00:02:07.142Z,12.12
2023-04-06T00:14:07.103Z,12.11
2023-04-06T00:26:06.990Z,12.10
2023-04-06T00:38:07.083Z,12.08
2023-04-06T00:50:07.086Z,12.06
2023-04-06T01:02:07.097Z,12.05
2023-04-06T02:50:07.106Z,11.96
2023-04-06T03:02:07.099Z,11.95
2023-04-06T03:14:07.002Z,11.94
2023-04-06T03:26:07.061Z,11.93
2023-04-06T03:38:06.976Z,11.92
2023-04-06T03:50:07.091Z,11.89
2023-04-06T04:02:07.137Z,11.90
2023-04-06T04:14:07.035Z,11.89
2023-04-06T04:26:06.976Z,11.86
2023-04-06T04:38:07.089Z,11.86
2023-04-06T04:50:07.089Z,11.85
2023-04-06T05:02:07.122Z,11.83
2023-04-06T05:14:06.995Z,11.84
2023-04-06T05:26:07.149Z,11.83
2023-04-06T05:38:06.983Z,11.83
2023-04-06T05:50:07.083Z,11.83
2023-04-06T06:02:07.121Z,11.86
2023-04-06T06:14:07.124Z,11.91
2023-04-06T06:26:07.092Z,11.95
2023-04-06T06:38:07.063Z,12.04
2023-04-06T06:50:07.000Z,12.09
2023-04-06T07:02:07.068Z,12.19
2023-04-06T07:14:07.655Z,12.32
2023-04-06T07:26:07.185Z,12.42
2023-04-06T07:38:07.083Z,12.60
2023-04-06T07:50:06.983Z,12.60
2023-04-06T08:02:07.111Z,12.60
2023-04-06T08:14:07.297Z,12.62
2023-04-06T08:26:07.056Z,12.62
2023-04-06T08:38:06.975Z,12.62
2023-04-06T08:50:07.076Z,12.61
2023-04-06T09:02:07.153Z,12.62
2023-04-06T09:14:07.214Z,12.62
2023-04-06T09:26:07.036Z,12.62
2023-04-06T09:38:07.092Z,12.63
2023-04-06T09:50:07.064Z,12.62
2023-04-06T10:02:07.078Z,12.62
2023-04-06T10:14:07.537Z,12.62
2023-04-06T10:26:07.013Z,12.62
2023-04-06T10:38:07.002Z,12.62
2023-04-06T10:50:07.126Z,12.61
2023-04-06T11:02:07.001Z,12.61
2023-04-06T11:14:06.995Z,12.61
2023-04-06T11:26:06.992Z,12.61
2023-04-06T11:38:06.981Z,12.60
2023-04-06T11:50:06.988Z,12.60
2023-04-06T12:02:06.998Z,12.60
2023-04-06T12:14:07.076Z,12.60
2023-04-06T12:26:06.987Z,12.60
2023-04-06T12:38:07.019Z,12.60
2023-04-06T12:50:07.008Z,12.60
2023-04-06T13:02:07.114Z,12.60
2023-04-06T13:14:07.115Z,12.60
2023-04-06T13:26:07.007Z,12.60
2023-04-06T13:38:06.998Z,12.60
2023-04-06T13:50:06.986Z,12.60
2023-04-06T14:02:07.130Z,12.60
2023-04-06T14:14:07.101Z,12.60
2023-04-06T14:26:06.991Z,12.60
2023-04-06T14:38:07.089Z,12.60
2023-04-06T14:50:07.061Z,12.60
2023-04-06T15:02:07.179Z,12.60
2023-04-06T15:14:07.006Z,12.60
2023-04-06T15:26:07.073Z,12.60
2023-04-06T15:38:06.975Z,12.60
2023-04-06T15:50:07.124Z,12.59
2023-04-06T16:02:07.140Z,12.59
2023-04-06T16:14:07.090Z,12.58
2023-04-06T16:26:07.111Z,12.57
2023-04-06T16:38:06.987Z,12.56
2023-04-06T16:50:07.096Z,12.55
2023-04-06T17:02:07.160Z,12.55
2023-04-06T17:14:07.107Z,12.53
2023-04-06T17:26:07.093Z,12.52
2023-04-06T17:38:06.976Z,12.50
2023-04-06T17:50:07.094Z,12.49
2023-04-06T18:02:07.072Z,12.47
2023-04-06T18:14:07.083Z,12.45
2023-04-06T18:26:07.063Z,12.43
2023-04-06T18:38:06.989Z,12.41
2023-04-06T18:50:07.114Z,12.42
2023-04-06T19:02:07.205Z,12.40
2023-04-06T19:14:07.071Z,12.39
2023-04-06T19:26:07.098Z,12.38
2023-04-06T19:38:06.975Z,12.36
2023-04-06T19:50:06.984Z,12.35
2023-04-06T20:02:07.194Z,12.33
2023-04-06T20:14:07.097Z,12.33
2023-04-06T20:26:07.095Z,12.32
2023-04-06T20:38:06.995Z,12.29
2023-04-06T20:50:07.069Z,12.28
2023-04-06T21:02:07.243Z,12.28
2023-04-06T21:14:06.998Z,12.26
2023-04-06T21:26:06.983Z,12.25
2023-04-06T21:38:07.000Z,12.24
2023-04-06T21:50:06.988Z,12.23
2023-04-06T22:02:07.190Z,12.23
2023-04-06T22:14:07.041Z,12.21
2023-04-06T22:26:07.773Z,12.20
2023-04-06T22:38:06.998Z,12.19
2023-04-06T22:50:07.096Z,12.18
2023-04-06T23:02:07.151Z,12.17
2023-04-06T23:14:06.989Z,12.14
2023-04-06T23:26:07.299Z,12.15
2023-04-06T23:38:07.061Z,12.13
2023-04-06T23:50:06.973Z,12.12
